Time;durP1;ratioP1;P1;durP2;ratioP2;P2;SDS_P1;SDS_P2;PMS_P1;PMS_P2;Temp;Humidity;BMP_temperature;BMP_pressure;BME280_temperature;BME280_humidity;BME280_pressure;Samples;Min_cycle;Max_cycle;Signal;HPM_P1;HPM_P2
2022/12/11 07:07:32;;;;;;;56.80;20.25;;;-2.60;99.90;;;;;;7605998;19;20378;-69
2022/12/11 07:10:06;;;;;;;62.08;24.52;;;-2.60;99.90;;;;;;7621430;19;20050;-67
2022/12/11 07:12:39;;;;;;;53.80;24.27;;;-2.50;99.90;;;;;;7625034;19;20021;-67
2022/12/11 07:15:11;;;;;;;61.65;25.73;;;-2.50;99.90;;;;;;7612974;19;20592;-69
2022/12/11 07:17:44;;;;;;;62.22;26.23;;;-2.40;99.90;;;;;;7608154;19;20010;-68
2022/12/11 07:20:16;;;;;;;62.05;26.83;;;-2.00;99.90;;;;;;7604737;19;20022;-69
2022/12/11 07:22:49;;;;;;;55.60;24.02;;;-1.80;99.90;;;;;;7615539;19;20014;-67
2022/12/11 07:25:21;;;;;;;51.00;22.65;;;-1.70;99.90;;;;;;7613423;19;20017;-67
2022/12/11 07:27:53;;;;;;;54.72;24.80;;;-1.60;99.90;;;;;;7631371;19;20570;-67
2022/12/11 07:30:25;;;;;;;48.03;21.13;;;-1.40;99.90;;;;;;7606562;19;20097;-67
2022/12/11 07:32:57;;;;;;;52.03;22.65;;;-1.40;99.90;;;;;;7611807;19;20029;-67
2022/12/11 07:35:29;;;;;;;59.10;26.85;;;-1.50;99.90;;;;;;7613486;19;20049;-67
2022/12/11 07:38:01;;;;;;;54.78;26.08;;;-1.50;99.90;;;;;;7629766;19;20018;-67
2022/12/11 07:40:34;;;;;;;55.85;25.85;;;-1.50;99.90;;;;;;7617757;19;20014;-68
2022/12/11 07:43:06;;;;;;;60.70;26.90;;;-1.50;99.90;;;;;;7637195;19;20698;-68
2022/12/11 07:45:38;;;;;;;53.60;23.83;;;-1.50;99.90;;;;;;7633839;19;20809;-67
2022/12/11 07:48:11;;;;;;;53.83;22.73;;;-1.60;99.90;;;;;;7621339;19;20046;-67
2022/12/11 07:50:43;;;;;;;55.20;22.90;;;-1.50;99.90;;;;;;7620800;19;20014;-67
2022/12/11 07:53:15;;;;;;;50.22;22.73;;;-1.50;99.90;;;;;;7633139;19;20709;-67
2022/12/11 07:55:47;;;;;;;50.28;22.55;;;-1.50;99.90;;;;;;7626863;19;20025;-67
2022/12/11 07:58:20;;;;;;;50.58;23.13;;;-1.40;99.90;;;;;;7619334;19;20572;-68
2022/12/11 08:00:52;;;;;;;45.08;20.08;;;-1.50;99.90;;;;;;7624213;19;20086;-67
2022/12/11 08:03:26;;;;;;;53.08;22.52;;;-1.40;99.90;;;;;;7623442;19;20015;-67
2022/12/11 08:05:58;;;;;;;51.00;22.17;;;-1.50;99.90;;;;;;7612612;19;20098;-70
2022/12/11 08:08:30;;;;;;;45.25;21.58;;;-1.50;99.90;;;;;;7611180;19;20034;-68
2022/12/11 08:11:04;;;;;;;54.97;24.93;;;-1.40;99.90;;;;;;7605721;19;20018;-69
2022/12/11 08:13:37;;;;;;;;;;;-1.20;99.90;;;;;;7629148;19;21188;-68
2022/12/11 08:16:12;;;;;;;44.85;21.10;;;-1.30;99.90;;;;;;7620362;19;19919;-68
2022/12/11 08:18:46;;;;;;;46.50;22.08;;;-1.30;99.90;;;;;;7588543;19;20656;-69
2022/12/11 08:21:24;;;;;;;47.10;22.00;;;-1.30;99.90;;;;;;7581689;19;21272;-69
2022/12/11 08:23:56;;;;;;;47.50;21.63;;;-1.40;99.90;;;;;;7588195;19;20669;-67
2022/12/11 08:26:32;;;;;;;47.55;21.75;;;-1.30;99.90;;;;;;7592366;19;20018;-67
2022/12/11 08:29:05;;;;;;;51.58;22.73;;;-1.30;99.90;;;;;;7580182;19;20051;-69
2022/12/11 08:31:38;;;;;;;50.70;23.17;;;-1.30;99.90;;;;;;7552365;19;21115;-68
2022/12/11 08:34:12;;;;;;;53.60;23.02;;;-1.30;99.90;;;;;;7558000;19;20023;-68
2022/12/11 08:36:44;;;;;;;47.67;21.52;;;-1.30;99.90;;;;;;7594033;19;20018;-69
2022/12/11 08:39:17;;;;;;;49.63;23.00;;;-1.20;99.90;;;;;;7571050;19;20019;-69
2022/12/11 08:41:49;;;;;;;50.05;22.33;;;-1.20;99.90;;;;;;7547094;19;20195;-68
2022/12/11 08:44:23;;;;;;;49.95;22.67;;;-1.20;99.90;;;;;;7595285;19;20025;-69
2022/12/11 08:46:56;;;;;;;48.08;21.27;;;-1.20;99.90;;;;;;7584164;19;20023;-69
2022/12/11 08:49:28;;;;;;;48.35;20.95;;;-1.30;99.90;;;;;;7583817;19;20089;-68
2022/12/11 08:52:06;;;;;;;54.60;23.77;;;-1.20;99.90;;;;;;7571969;19;20344;-69
2022/12/11 08:54:38;;;;;;;31.20;12.45;;;-1.10;99.90;;;;;;7534333;19;20439;-68
2022/12/11 08:57:10;;;;;;;44.05;20.00;;;-0.90;99.90;;;;;;7574547;19;20026;-69
2022/12/11 08:59:44;;;;;;;46.60;21.83;;;-0.80;99.90;;;;;;7579918;19;20025;-69
2022/12/11 09:02:17;;;;;;;49.95;23.02;;;-0.80;99.90;;;;;;7579490;19;21460;-68
2022/12/11 09:04:49;;;;;;;50.90;24.17;;;-0.90;99.90;;;;;;7587589;19;20038;-69
2022/12/11 09:07:21;;;;;;;53.90;25.45;;;-1.00;99.90;;;;;;7581246;19;20013;-69
2022/12/11 09:09:54;;;;;;;48.25;22.55;;;-1.10;99.90;;;;;;7586422;19;20026;-68
2022/12/11 09:12:26;;;;;;;52.30;23.08;;;-1.00;99.90;;;;;;7588752;19;20021;-68
2022/12/11 09:14:59;;;;;;;47.63;21.95;;;-1.00;99.90;;;;;;7564197;19;20020;-69
2022/12/11 09:17:32;;;;;;;48.78;21.90;;;-1.10;99.90;;;;;;7542114;19;20802;-69
2022/12/11 09:20:05;;;;;;;44.83;20.10;;;-1.00;99.90;;;;;;7556602;19;20082;-68
2022/12/11 09:22:38;;;;;;;47.15;20.95;;;-0.90;99.90;;;;;;7537356;19;20021;-68
2022/12/11 09:25:11;;;;;;;45.35;21.75;;;-0.80;99.90;;;;;;7531191;19;20007;-68
2022/12/11 09:27:44;;;;;;;56.47;26.10;;;-0.60;99.90;;;;;;7555454;19;20878;-68
2022/12/11 09:30:16;;;;;;;76.45;34.95;;;-0.40;99.90;;;;;;7553457;19;20017;-68
2022/12/11 09:32:48;;;;;;;63.50;30.42;;;-0.40;99.90;;;;;;7579445;19;20311;-69
2022/12/11 09:35:20;;;;;;;45.72;22.55;;;-0.40;99.90;;;;;;7546693;19;20018;-68
2022/12/11 09:37:52;;;;;;;49.35;22.90;;;-0.30;99.90;;;;;;7570981;19;20018;-69
2022/12/11 09:40:24;;;;;;;38.03;19.20;;;-0.30;99.90;;;;;;7549951;19;20097;-70
2022/12/11 09:43:05;;;;;;;40.40;20.35;;;-0.40;99.90;;;;;;7582819;19;21096;-68
2022/12/11 09:45:37;;;;;;;40.13;19.63;;;-0.60;99.90;;;;;;7580891;19;20089;-69
2022/12/11 09:48:12;;;;;;;40.03;18.33;;;-0.70;99.90;;;;;;7558185;19;20018;-69
2022/12/11 09:50:47;;;;;;;40.83;20.50;;;-0.60;99.90;;;;;;7558349;19;20532;-69
2022/12/11 09:53:36;;;;;;;39.03;18.88;;;-0.50;99.90;;;;;;7578296;19;20493;-68
2022/12/11 09:56:24;;;;;;;40.78;20.23;;;-0.40;99.90;;;;;;7576190;19;20112;-68
2022/12/11 09:59:15;;;;;;;40.25;20.73;;;-0.40;99.90;;;;;;7579876;19;20022;-69
2022/12/11 10:01:56;;;;;;;33.28;17.92;;;-0.30;99.90;;;;;;7579495;19;20022;-69
2022/12/11 10:05:07;;;;;;;42.42;20.45;;;-0.50;99.90;;;;;;7575004;19;20545;-69
2022/12/11 10:07:51;;;;;;;34.08;16.15;;;-0.50;99.90;;;;;;7573380;19;20010;-69
2022/12/11 10:10:34;;;;;;;35.05;17.38;;;-0.50;99.90;;;;;;7549221;19;20018;-69
2022/12/11 10:13:15;;;;;;;27.20;14.75;;;-0.50;99.90;;;;;;7585787;19;20006;-69
2022/12/11 10:15:58;;;;;;;28.73;14.15;;;-0.50;99.90;;;;;;7580613;19;20014;-68
2022/12/11 10:18:32;;;;;;;29.63;15.73;;;-0.60;99.90;;;;;;7553967;19;20014;-69
2022/12/11 10:21:05;;;;;;;25.70;13.23;;;-0.60;99.90;;;;;;7570659;19;20021;-71
2022/12/11 10:23:44;;;;;;;30.15;16.08;;;-0.60;99.90;;;;;;7571754;19;20021;-68
2022/12/11 10:26:19;;;;;;;27.08;14.82;;;-0.50;99.90;;;;;;7577689;19;20024;-71
2022/12/11 10:28:52;;;;;;;24.17;13.15;;;-0.50;99.90;;;;;;7565103;19;21013;-69
2022/12/11 10:31:44;;;;;;;22.77;12.93;;;-0.40;99.90;;;;;;7585460;19;20021;-69
2022/12/11 10:34:37;;;;;;;25.50;14.55;;;-0.50;99.90;;;;;;7583330;19;20014;-69
2022/12/11 10:37:10;;;;;;;23.50;12.60;;;-0.60;99.90;;;;;;7586421;19;21477;-69
2022/12/11 10:39:42;;;;;;;24.45;12.70;;;-0.60;99.90;;;;;;7544484;19;20034;-71
2022/12/11 10:42:22;;;;;;;24.75;13.27;;;-0.60;99.90;;;;;;7574017;19;20029;-70
2022/12/11 10:45:00;;;;;;;28.40;12.60;;;-0.50;99.90;;;;;;7587939;19;20461;-71
2022/12/11 10:47:33;;;;;;;24.25;12.38;;;-0.50;99.90;;;;;;7540931;19;21280;-71
2022/12/11 10:50:05;;;;;;;25.48;12.00;;;-0.40;99.90;;;;;;7563656;19;20020;-71
2022/12/11 10:52:43;;;;;;;25.58;12.63;;;-0.40;99.90;;;;;;7585872;19;20018;-71
2022/12/11 10:55:37;;;;;;;24.67;12.65;;;-0.30;99.90;;;;;;7595437;19;20014;-72
2022/12/11 10:58:18;;;;;;;24.93;12.53;;;-0.30;99.90;;;;;;7550118;19;20334;-71
2022/12/11 11:01:05;;;;;;;23.73;12.70;;;-0.30;99.90;;;;;;7551371;19;20275;-71
2022/12/11 11:03:51;;;;;;;22.27;12.13;;;-0.40;99.90;;;;;;7584737;19;20366;-71
2022/12/11 11:06:25;;;;;;;23.50;12.23;;;-0.40;99.90;;;;;;7570248;19;20022;-70
2022/12/11 11:09:00;;;;;;;20.15;11.05;;;-0.40;99.90;;;;;;7579431;19;20022;-71
2022/12/11 11:11:37;;;;;;;25.30;12.48;;;-0.30;99.90;;;;;;7571738;19;20018;-71
2022/12/11 11:14:19;;;;;;;31.77;14.45;;;-0.20;99.90;;;;;;7562209;19;20018;-69
2022/12/11 11:16:56;;;;;;;24.10;12.67;;;-0.10;99.90;;;;;;7574156;19;20011;-71
2022/12/11 11:19:33;;;;;;;22.80;11.45;;;-0.10;99.90;;;;;;7571267;19;20014;-70
2022/12/11 11:22:14;;;;;;;22.45;11.15;;;-0.20;99.90;;;;;;7581071;19;20017;-70
2022/12/11 11:24:57;;;;;;;21.60;11.82;;;-0.20;99.90;;;;;;7598802;19;20015;-69
2022/12/11 11:27:35;;;;;;;;;;;-0.30;99.90;;;;;;7587961;19;20026;-70
2022/12/11 11:30:24;;;;;;;24.52;12.48;;;-0.30;99.90;;;;;;7584302;19;19922;-70
2022/12/11 11:33:03;;;;;;;24.45;13.05;;;-0.40;99.90;;;;;;7575110;19;20015;-70
2022/12/11 11:35:36;;;;;;;24.73;13.27;;;-0.40;99.90;;;;;;7562014;19;20048;-70
2022/12/11 19:13:59;;;;;;;39.83;18.20;;;-2.80;99.90;;;;;;7578780;19;22619;-70
2022/12/11 19:16:38;;;;;;;41.67;19.00;;;-2.90;99.90;;;;;;7548626;19;20026;-69
2022/12/11 19:19:17;;;;;;;43.55;19.13;;;-2.80;99.90;;;;;;7613427;19;20279;-72
2022/12/11 19:21:49;;;;;;;38.90;19.40;;;-2.70;99.90;;;;;;7584209;19;20014;-66
2022/12/11 19:24:23;;;;;;;38.20;19.63;;;-2.60;99.90;;;;;;7582830;19;20763;-67
2022/12/11 19:26:55;;;;;;;43.50;19.48;;;-2.60;99.90;;;;;;7589077;19;20007;-67
2022/12/11 19:29:33;;;;;;;46.00;21.40;;;-2.50;99.90;;;;;;7604858;19;20018;-69
2022/12/11 19:32:05;;;;;;;41.80;20.10;;;-2.50;99.90;;;;;;7601534;19;20036;-67
2022/12/11 19:34:38;;;;;;;48.53;20.90;;;-2.40;99.90;;;;;;7616557;19;20010;-69
2022/12/11 19:37:11;;;;;;;53.50;25.98;;;-2.40;99.90;;;;;;7634201;19;20017;-70
2022/12/11 19:39:43;;;;;;;42.83;21.27;;;-2.30;99.90;;;;;;7570259;19;20022;-69
2022/12/11 19:42:15;;;;;;;51.80;21.75;;;-2.20;99.90;;;;;;7591019;19;20793;-70
2022/12/11 19:44:47;;;;;;;48.42;22.77;;;-2.30;99.90;;;;;;7567657;19;20085;-67
2022/12/11 19:47:19;;;;;;;47.40;22.92;;;-2.20;99.90;;;;;;7558890;19;20025;-67
2022/12/11 19:49:51;;;;;;;55.45;23.92;;;-2.10;99.90;;;;;;7596158;19;20429;-68
2022/12/11 19:52:23;;;;;;;54.67;22.52;;;-2.10;99.90;;;;;;7594759;19;20022;-67
2022/12/11 19:55:00;;;;;;;53.72;23.45;;;-2.00;99.90;;;;;;7606777;19;20014;-67
2022/12/11 19:57:33;;;;;;;49.50;23.13;;;-2.00;99.90;;;;;;7592552;19;20629;-68
2022/12/11 20:00:07;;;;;;;56.65;23.60;;;-2.00;99.90;;;;;;7578015;19;20400;-69
